• Join FlightAware (Why Join?)
  • Login
  • US Flag 
07:20PM EDT


 

Airport Tracker/Info


-or-


 

Live Flight TrackerFlight Track Log ✈ BJS542 ✈ 28-Apr-2013 ✈ KPSM - KJFK

Flight Track Log - Related Links

Times and Time Zones

All times are in EDT time to prevent confusion due to time zone crossing. See the BJS542 flight status page for this flight to view local times or setup timezone preferences in your user account.

Time Position Orientation Groundspeed Altitude Reporting Facility
EDT Latitude Longitude Course Direction KTS MPH feet Rate Location/Type
03:23PM 43.0667 -70.8000 200° South 166 191 1,100  Level KA90
03:23PM 43.0333 -70.8167 200° South 190 219 2,500 3,480 Climbing KA90
03:26PM 43.0667 -71.0192 283° West 230 265 14,000 3,000 Climbing Boston Center
03:27PM 43.0994 -71.1406 290° West 280 322 14,200 1,620 Climbing Boston Center
03:28PM 43.1342 -71.2708 290° West 350 403 17,300 2,700 Climbing Boston Center
03:29PM 43.1272 -71.4189 266° West 395 455 19,600 1,320 Climbing Boston Center
03:30PM 43.1075 -71.5528 259° West 395 455 20,000 180 Climbing Boston Center
03:31PM 43.0858 -71.7039 259° West 402 463 20,000  Level Boston Center
03:32PM 43.0678 -71.8547 261° West 407 468 20,000  Level Boston Center
03:33PM 43.0747 -71.9994 274° West 402 463 20,000  Level Boston Center
03:34PM 43.0817 -72.1500 274° West 402 463 20,000  Level Boston Center
03:35PM 43.0672 -72.2839 262° West 388 447 20,000  Level Boston Center
03:36PM 43.0089 -72.4117 238° Southwest 374 430 20,000  Level Boston Center
03:37PM 42.9172 -72.5053 217° Southwest 383 441 20,000  Level Boston Center
03:38PM 42.8317 -72.5986 219° Southwest 388 447 20,000  Level Boston Center
03:39PM 42.7336 -72.6861 213° Southwest 411 473 20,000  Level Boston Center
03:40PM 42.6478 -72.7789 218° Southwest 411 473 20,000  Level Boston Center
03:41PM 42.5622 -72.8769 220° Southwest 416 479 20,000  Level Boston Center
03:42PM 42.4742 -72.9750 219° Southwest 411 473 20,000  Level Boston Center
03:43PM 42.4069 -73.0867 231° Southwest 403 464 20,000  Level Boston Center
03:44PM 42.3497 -73.2125 238° Southwest 395 455 20,000  Level Boston Center
03:45PM 42.2969 -73.3356 240° Southwest 417 480 20,000  Level Boston Center
03:46PM 42.2003 -73.4153 211° Southwest 385 443 20,000  Level Boston Center
03:47PM 42.1039 -73.4894 210° Southwest 391 450 20,000  Level Boston Center
03:48PM 41.9925 -73.5825 212° Southwest 416 479 20,000  Level Boston Center
03:49PM 41.8978 -73.6589 211° Southwest 421 484 20,000  Level Boston Center
03:50PM 41.8011 -73.7378 211° Southwest 409 471 20,000  Level Boston Center
03:52PM 41.6567 -73.8503 210° Southwest 409 471 20,000  Level New York Center
03:53PM 41.5544 -73.9314 211° Southwest 409 471 20,000 -60 Level New York Center
03:54PM 41.4650 -74.0047 212° Southwest 396 456 19,900  Descending New York Center
03:55PM 41.3822 -74.0697 211° Southwest 373 429 20,000  Climbing New York Center
03:56PM 41.2958 -74.1014 195° South 326 375 19,900 -60 Descending New York Center
03:57PM 41.2019 -74.1078 183° South 331 381 19,900 -480 Level New York Center
03:58PM 41.1058 -74.1194 185° South 337 388 19,000 -420 Descending New York Center
03:59PM 41.0000 -74.1333 186° South 326 375 19,000  Level New York TRACON
04:00PM 40.9167 -74.0833 156° South 332 382 19,000 -240 Level New York TRACON
04:01PM 40.8500 -73.9833 131° Southeast 325 374 18,600 -780 Descending New York TRACON
04:02PM 40.8000 -73.8833 123° Southeast 321 369 17,500 -1,500 Descending New York TRACON
04:03PM 40.7500 -73.8000 128° Southeast 326 375 15,700 -1,860 Descending New York TRACON
04:04PM 40.7000 -73.7000 123° Southeast 349 402 13,800 -1,800 Descending New York TRACON
04:05PM 40.6667 -73.6000 114° Southeast 301 346 12,200 -900 Descending New York TRACON
04:06PM 40.6333 -73.5000 114° Southeast 299 344 12,000 -660 Descending New York TRACON
04:07PM 40.5667 -73.5000 180° South 294 338 10,900 -1,560 Descending New York TRACON
04:08PM 40.4833 -73.5333 197° South 293 337 8,900 -1,740 Descending New York TRACON
04:09PM 40.4167 -73.5833 210° Southwest 283 326 7,500 -1,500 Descending New York TRACON
04:10PM 40.3500 -73.6500 217° Southwest 275 316 5,900 -1,560 Descending New York TRACON
04:11PM 40.3167 -73.7167 237° Southwest 262 302 4,400 -1,500 Descending New York TRACON
04:12PM 40.3167 -73.8167 270° West 257 296 3,000 -720 Descending New York TRACON
04:13PM 40.3500 -73.8833 303° West 226 260 3,000  Level New York TRACON
04:14PM 40.3833 -73.9333 311° West 192 221 3,000  Level New York TRACON
04:15PM 40.4333 -73.9833 323° Northwest 191 220 3,000  Level New York TRACON
04:16PM 40.4833 -74.0000 346° North 203 234 3,000 -60 Level New York TRACON
04:17PM 40.5333 -73.9667 27° Northeast 204 235 2,900 -420 Descending New York TRACON
04:18PM 40.5667 -73.9333 37° Northeast 193 222 2,200 -780 Descending New York TRACON
04:19PM 40.6167 -73.8833 37° Northeast 208 239 1,400 -720 Descending New York TRACON
04:20PM 40.6667 -73.8500 27° Northeast 157 181 800 -600 Descending New York TRACON